Time;durP1;ratioP1;P1;durP2;ratioP2;P2;SDS_P1;SDS_P2;PMS_P1;PMS_P2;Temp;Humidity;BMP_temperature;BMP_pressure;BME280_temperature;BME280_humidity;BME280_pressure;Samples;Min_cycle;Max_cycle;Signal;HPM_P1;HPM_P2
2023/03/25 00:00:16;;;;;;;2.85;1.85;;;;;;;14.04;85.08;97826.94;4484292;31;20096;-64
2023/03/25 00:02:46;;;;;;;3.08;1.85;;;;;;;14.03;86.32;97833.19;4484607;31;20139;-64
2023/03/25 00:05:15;;;;;;;2.87;2.00;;;;;;;13.96;87.37;97833.12;4484581;31;20753;-64
2023/03/25 00:07:44;;;;;;;3.67;1.90;;;;;;;13.90;87.82;97823.31;4484478;31;20498;-64
2023/03/25 00:10:12;;;;;;;2.70;1.83;;;;;;;13.86;88.21;97826.50;4484340;31;20529;-64
2023/03/25 00:12:41;;;;;;;2.58;1.73;;;;;;;13.86;88.68;97827.31;4484202;32;20101;-64
2023/03/25 00:15:10;;;;;;;3.20;1.87;;;;;;;13.88;88.68;97827.13;4484025;31;20111;-64
2023/03/25 00:17:38;;;;;;;2.58;1.70;;;;;;;13.83;89.25;97832.94;4483058;32;20100;-64
2023/03/25 00:20:09;;;;;;;3.05;1.83;;;;;;;13.80;89.42;97838.56;4483926;32;20480;-64
2023/03/25 00:22:42;;;;;;;2.78;1.87;;;;;;;13.77;90.73;97842.38;4484284;31;20081;-64
2023/03/25 00:25:19;;;;;;;4.30;1.60;;;;;;;13.66;92.39;97840.19;4484021;31;20378;-64
2023/03/25 00:27:47;;;;;;;5.03;2.00;;;;;;;13.61;93.30;97846.00;4484354;31;20116;-64
2023/03/25 00:30:15;;;;;;;2.70;1.90;;;;;;;13.54;94.62;97839.00;4483969;32;20149;-64
2023/03/25 00:32:48;;;;;;;3.15;1.95;;;;;;;13.53;95.37;97845.25;4484114;31;20525;-64
2023/03/25 00:35:18;;;;;;;3.70;2.10;;;;;;;13.47;97.13;97844.13;4483960;31;20138;-64
2023/03/25 00:37:56;;;;;;;3.87;2.42;;;;;;;13.38;98.87;97839.94;4484065;31;20111;-64
2023/03/25 00:40:23;;;;;;;3.08;2.17;;;;;;;13.25;100.00;97835.28;4483989;31;20159;-64
2023/03/25 00:42:50;;;;;;;2.95;1.75;;;;;;;13.20;100.00;97830.53;4483874;31;20430;-64
2023/03/25 00:45:17;;;;;;;3.40;2.15;;;;;;;13.17;100.00;97837.94;4483698;31;20140;-64
2023/03/25 00:47:45;;;;;;;3.42;2.05;;;;;;;13.10;100.00;97835.22;4484091;31;20501;-64
2023/03/25 00:50:12;;;;;;;3.03;1.87;;;;;;;13.11;100.00;97829.78;4483763;31;20161;-64
2023/03/25 00:52:40;;;;;;;2.85;1.40;;;;;;;13.12;100.00;97835.84;4483702;31;20115;-64
2023/03/25 00:55:07;;;;;;;2.00;1.37;;;;;;;13.20;99.43;97838.44;4483681;31;20100;-64
2023/03/25 00:57:35;;;;;;;3.05;1.95;;;;;;;13.32;98.75;97830.91;4483738;31;20148;-64
2023/03/25 01:00:09;;;;;;;2.00;1.40;;;;;;;13.31;99.10;97830.09;4483429;31;20461;-64
2023/03/25 01:02:40;;;;;;;5.43;1.98;;;;;;;13.25;100.00;97835.28;4483633;31;20076;-64
2023/03/25 01:05:09;;;;;;;4.53;2.28;;;;;;;13.14;100.00;97839.94;4483475;31;20135;-64
2023/03/25 01:07:38;;;;;;;3.33;2.12;;;;;;;12.90;100.00;97838.31;4483884;32;20139;-64
2023/03/25 01:10:06;;;;;;;2.97;2.00;;;;;;;12.85;100.00;97840.62;4484053;31;20093;-64
2023/03/25 01:12:33;;;;;;;4.95;1.75;;;;;;;12.79;100.00;97843.97;4485744;31;20176;-64
2023/03/25 01:15:00;;;;;;;2.90;2.22;;;;;;;12.71;100.00;97834.31;4485467;31;20417;-64
2023/03/25 01:17:28;;;;;;;2.53;1.80;;;;;;;12.66;100.00;97825.34;4485645;31;20122;-64
2023/03/25 01:19:55;;;;;;;2.70;1.60;;;;;;;12.59;100.00;97833.88;4485595;31;20398;-64
2023/03/25 01:22:22;;;;;;;2.00;1.48;;;;;;;12.55;100.00;97832.62;4486044;31;20104;-64
2023/03/25 01:24:49;;;;;;;2.28;1.55;;;;;;;12.58;100.00;97840.16;4485886;31;20133;-64
2023/03/25 01:27:16;;;;;;;3.95;1.70;;;;;;;12.63;100.00;97831.75;4485639;31;20084;-64
2023/03/25 01:29:43;;;;;;;2.33;1.95;;;;;;;12.67;100.00;97838.31;4485848;32;20131;-64
2023/03/25 01:32:10;;;;;;;11.43;2.87;;;;;;;12.72;100.00;97843.03;4485921;31;20092;-64
2023/03/25 01:34:37;;;;;;;8.77;2.70;;;;;;;12.74;100.00;97839.22;4485556;31;20453;-64
2023/03/25 01:37:05;;;;;;;4.87;2.42;;;;;;;12.75;100.00;97838.25;4485656;32;20510;-64
2023/03/25 01:39:33;;;;;;;3.47;2.47;;;;;;;12.72;100.00;97840.41;4485730;31;20161;-64
2023/03/25 01:42:00;;;;;;;3.80;2.40;;;;;;;12.67;100.00;97835.69;4485563;31;20351;-64
2023/03/25 01:44:28;;;;;;;4.65;2.60;;;;;;;12.60;100.00;97843.41;4485470;31;20100;-64
2023/03/25 01:46:58;;;;;;;3.33;2.20;;;;;;;12.57;100.00;97848.22;4485548;31;20084;-64
2023/03/25 01:49:28;;;;;;;7.85;2.22;;;;;;;12.50;100.00;97837.56;4485554;31;20110;-64
2023/03/25 01:51:59;;;;;;;3.75;1.87;;;;;;;12.48;100.00;97850.06;4485587;31;20125;-64
2023/03/25 01:54:26;;;;;;;4.07;2.35;;;;;;;12.41;100.00;97852.56;4485491;31;20143;-64
2023/03/25 01:56:54;;;;;;;5.20;2.87;;;;;;;12.30;100.00;97852.13;4484232;32;20112;-64
2023/03/25 01:59:24;;;;;;;6.53;1.92;;;;;;;12.11;100.00;97850.69;4485777;31;20093;-64
2023/03/25 02:01:53;;;;;;;2.90;1.98;;;;;;;11.99;100.00;97851.09;4484204;32;20081;-64
2023/03/25 02:04:30;;;;;;;3.53;2.40;;;;;;;11.92;100.00;97859.78;4485411;32;20100;-64
2023/03/25 02:06:57;;;;;;;3.45;2.00;;;;;;;11.76;100.00;97857.97;4484134;32;20542;-64
2023/03/25 02:09:25;;;;;;;2.80;2.00;;;;;;;11.69;100.00;97847.34;4484247;32;20097;-64
2023/03/25 02:11:55;;;;;;;3.90;2.00;;;;;;;11.55;100.00;97848.81;4484165;32;20089;-64
2023/03/25 02:14:26;;;;;;;5.12;2.45;;;;;;;11.54;100.00;97842.78;4485631;31;20440;-64
2023/03/25 02:17:16;;;;;;;4.00;2.42;;;;;;;11.44;100.00;97846.56;4483777;32;20109;-64
2023/03/25 02:19:43;;;;;;;2.72;2.05;;;;;;;11.44;100.00;97851.81;4484036;32;20138;-64
2023/03/25 02:22:36;;;;;;;7.12;2.22;;;;;;;11.32;100.00;97859.97;4483894;31;20177;-64
2023/03/25 02:25:33;;;;;;;3.42;2.42;;;;;;;11.28;100.00;97856.06;4485324;31;20118;-63
2023/03/25 02:28:08;;;;;;;4.30;2.45;;;;;;;11.33;100.00;97851.16;4485304;31;20156;-64
2023/03/25 02:31:05;;;;;;;4.87;2.58;;;;;;;11.35;100.00;97845.75;4485492;31;20084;-64
2023/03/25 02:34:07;;;;;;;3.65;2.47;;;;;;;11.30;100.00;97859.34;4436392;32;20584;-64
2023/03/25 02:37:05;;;;;;;3.10;2.17;;;;;;;11.15;100.00;97847.88;4423390;32;20540;-64
2023/03/25 02:39:38;;;;;;;4.53;2.47;;;;;;;11.16;100.00;97839.84;4436167;32;20431;-64
2023/03/25 02:42:14;;;;;;;5.53;2.70;;;;;;;11.19;100.00;97839.53;4436253;32;20101;-64
2023/03/25 02:45:11;;;;;;;2.83;1.80;;;;;;;11.17;100.00;97831.00;4423501;32;20098;-64
2023/03/25 02:47:44;;;;;;;6.12;2.28;;;;;;;11.17;100.00;97824.94;4390197;32;20110;-64
2023/03/25 02:50:20;;;;;;;5.85;2.17;;;;;;;11.10;100.00;97827.41;4378221;32;20152;-64
2023/03/25 02:52:54;;;;;;;2.92;1.75;;;;;;;11.08;100.00;97821.50;4390198;32;20162;-64
2023/03/25 02:55:22;;;;;;;4.32;2.00;;;;;;;11.14;100.00;97830.50;4377934;32;20150;-63
2023/03/25 02:57:56;;;;;;;3.83;2.10;;;;;;;11.09;100.00;97824.94;4390069;32;20214;-63
2023/03/25 03:00:26;;;;;;;2.62;1.60;;;;;;;11.00;100.00;97835.41;4390394;32;20522;-64
2023/03/25 03:03:00;;;;;;;3.87;2.00;;;;;;;10.95;100.00;97826.41;4390024;32;20140;-64
2023/03/25 03:05:32;;;;;;;3.83;1.87;;;;;;;10.86;100.00;97830.00;4390422;32;20153;-63
2023/03/25 03:08:24;;;;;;;3.95;1.87;;;;;;;10.85;100.00;97829.16;4390402;32;20107;-63
2023/03/25 03:11:06;;;;;;;2.85;2.00;;;;;;;10.80;100.00;97834.91;4421207;32;20308;-64
2023/03/25 03:14:06;;;;;;;2.78;1.90;;;;;;;10.78;100.00;97841.28;4436039;32;20658;-63
2023/03/25 03:17:02;;;;;;;2.55;1.98;;;;;;;10.67;100.00;97847.62;4389750;32;20091;-64
2023/03/25 03:19:47;;;;;;;4.03;2.47;;;;;;;10.59;100.00;97852.88;4389969;32;20102;-63
2023/03/25 03:22:36;;;;;;;3.83;2.35;;;;;;;10.47;100.00;97853.16;4389977;32;20129;-63
2023/03/25 03:25:32;;;;;;;7.60;2.40;;;;;;;10.36;100.00;97853.47;4422144;32;20168;-63
2023/03/25 03:28:26;;;;;;;4.62;2.75;;;;;;;10.42;100.00;97854.63;4450819;32;20504;-64
2023/03/25 03:31:05;;;;;;;;;;;;;;;10.35;100.00;97871.94;4438871;32;20117;-64
2023/03/25 03:33:49;;;;;;;5.15;2.45;;;;;;;10.36;100.00;97861.31;4451017;32;19997;-65
2023/03/25 03:36:19;;;;;;;6.32;1.92;;;;;;;10.34;100.00;97860.66;4438342;32;20151;-64
2023/03/25 03:39:04;;;;;;;8.23;2.70;;;;;;;10.31;100.00;97855.72;4451210;32;20109;-64
2023/03/25 03:41:34;;;;;;;5.85;3.17;;;;;;;10.27;100.00;97864.84;4438465;32;20184;-63
2023/03/25 03:44:16;;;;;;;4.50;2.65;;;;;;;10.17;100.00;97867.56;4438254;32;20173;-63
2023/03/25 03:47:05;;;;;;;4.53;2.53;;;;;;;10.13;100.00;97874.94;4438153;32;20093;-63
2023/03/25 03:49:40;;;;;;;4.00;2.90;;;;;;;10.12;100.00;97883.75;4438169;32;20172;-63
2023/03/25 03:52:12;;;;;;;4.20;2.58;;;;;;;10.11;100.00;97874.28;4438529;32;20606;-63
2023/03/25 03:54:45;;;;;;;4.53;3.03;;;;;;;10.17;100.00;97890.31;4482814;32;20157;-63
2023/03/25 03:57:23;;;;;;;5.07;2.65;;;;;;;10.12;100.00;97886.34;4483051;32;20084;-63
2023/03/25 04:00:12;;;;;;;5.45;2.92;;;;;;;10.20;100.00;97896.03;4483550;32;20558;-63
2023/03/25 04:02:49;;;;;;;6.53;3.22;;;;;;;10.22;100.00;97895.88;4483277;32;20171;-63
2023/03/25 04:05:19;;;;;;;6.70;3.33;;;;;;;10.18;100.00;97895.38;4483259;32;20149;-63
2023/03/25 04:07:59;;;;;;;6.85;3.50;;;;;;;10.15;100.00;97905.37;4484441;32;20160;-63
2023/03/25 04:10:38;;;;;;;7.30;3.35;;;;;;;10.15;100.00;97900.13;4483172;32;20171;-63
2023/03/25 04:13:12;;;;;;;4.97;3.17;;;;;;;10.20;100.00;97901.28;4484304;31;20510;-63
2023/03/25 04:15:40;;;;;;;5.72;3.30;;;;;;;10.19;100.00;97907.50;4467402;32;20159;-63
2023/03/25 04:18:08;;;;;;;4.37;2.80;;;;;;;10.25;100.00;97906.03;4467051;32;20160;-63
2023/03/25 04:20:35;;;;;;;6.45;3.67;;;;;;;10.26;100.00;97910.31;4468506;32;20164;-63
2023/03/25 04:23:08;;;;;;;3.67;2.72;;;;;;;10.27;100.00;97906.72;4468535;32;20088;-63
2023/03/25 04:25:36;;;;;;;5.30;2.80;;;;;;;10.31;100.00;97910.69;4468780;32;20088;-63
2023/03/25 04:28:03;;;;;;;5.50;3.17;;;;;;;10.27;100.00;97909.34;4468249;32;21099;-63
2023/03/25 04:30:30;;;;;;;2.95;2.40;;;;;;;10.21;100.00;97902.12;4468451;32;20101;-63
2023/03/25 04:32:59;;;;;;;5.30;2.72;;;;;;;10.21;100.00;97907.34;4468301;32;20148;-63
2023/03/25 04:35:26;;;;;;;3.90;2.45;;;;;;;10.26;100.00;97915.53;4468244;32;20080;-63
2023/03/25 04:37:55;;;;;;;3.15;2.25;;;;;;;10.29;100.00;97916.06;4468195;32;20113;-63
2023/03/25 04:40:24;;;;;;;3.85;1.98;;;;;;;10.25;100.00;97924.38;4468198;32;20131;-63
2023/03/25 04:42:52;;;;;;;3.35;1.77;;;;;;;10.22;100.00;97919.44;4468038;32;20116;-63
2023/03/25 04:45:20;;;;;;;4.20;2.30;;;;;;;10.21;100.00;97923.06;4468894;32;20092;-63
2023/03/25 04:47:48;;;;;;;3.60;1.98;;;;;;;10.20;100.00;97921.41;4470301;32;20089;-63
2023/03/25 04:50:23;;;;;;;3.75;1.80;;;;;;;10.20;100.00;97930.06;4469243;32;20093;-63
2023/03/25 04:52:56;;;;;;;3.70;1.77;;;;;;;10.16;100.00;97930.53;4470316;32;20115;-63
2023/03/25 04:55:24;;;;;;;2.95;1.35;;;;;;;10.16;100.00;97927.91;4470346;32;20141;-63
2023/03/25 04:57:53;;;;;;;2.42;1.42;;;;;;;10.16;100.00;97935.78;4470132;32;20466;-63
2023/03/25 05:00:22;;;;;;;1.60;1.20;;;;;;;10.09;100.00;97938.19;4470229;32;20089;-63
2023/03/25 05:02:53;;;;;;;2.37;1.25;;;;;;;10.05;100.00;97937.69;4470178;32;20097;-63
2023/03/25 05:05:23;;;;;;;1.92;1.17;;;;;;;10.07;100.00;97948.00;4470276;32;20145;-63
2023/03/25 05:07:54;;;;;;;1.65;1.17;;;;;;;10.10;100.00;97947.69;4470185;32;20131;-64
2023/03/25 05:10:23;;;;;;;1.33;1.05;;;;;;;9.98;100.00;97951.53;4463772;32;209957;-63
2023/03/25 05:12:57;;;;;;;1.85;1.10;;;;;;;10.00;100.00;97954.81;4485849;31;20096;-63
2023/03/25 05:15:25;;;;;;;1.60;0.80;;;;;;;9.94;100.00;97958.87;4485756;31;20171;-63
2023/03/25 05:17:52;;;;;;;2.17;1.00;;;;;;;9.93;100.00;97960.69;4485688;31;20160;-63
2023/03/25 05:20:21;;;;;;;1.90;1.00;;;;;;;9.95;100.00;97963.94;4485611;31;20141;-63
2023/03/25 05:22:52;;;;;;;1.17;0.70;;;;;;;9.91;100.00;97965.22;4486111;32;20120;-63
2023/03/25 05:25:21;;;;;;;1.37;0.82;;;;;;;10.01;100.00;97975.59;4485873;31;20096;-63
2023/03/25 05:27:49;;;;;;;2.45;0.90;;;;;;;9.98;100.00;97968.06;4484222;32;20474;-63
2023/03/25 05:30:16;;;;;;;0.98;0.88;;;;;;;9.95;100.00;97968.38;4485818;31;20096;-63
2023/03/25 05:32:44;;;;;;;2.80;1.00;;;;;;;9.95;100.00;97965.75;4485526;31;20366;-63
2023/03/25 05:35:12;;;;;;;1.73;0.90;;;;;;;9.97;100.00;97963.00;4485754;31;20115;-64
2023/03/25 05:37:39;;;;;;;1.83;1.08;;;;;;;9.91;100.00;97965.22;4485697;31;20598;-64
2023/03/25 05:40:07;;;;;;;1.15;0.70;;;;;;;9.93;100.00;97962.44;4485585;31;20077;-64
2023/03/25 05:42:45;;;;;;;1.67;0.95;;;;;;;9.87;100.00;97963.91;4485690;31;20128;-64
2023/03/25 05:45:17;;;;;;;2.15;0.70;;;;;;;9.81;100.00;97958.44;4485871;32;20155;-64
2023/03/25 05:47:46;;;;;;;1.58;0.80;;;;;;;9.86;100.00;97972.72;4485918;31;20199;-64
2023/03/25 05:50:13;;;;;;;1.67;0.80;;;;;;;9.74;100.00;97966.91;4484099;32;20069;-64
2023/03/25 05:52:40;;;;;;;1.55;1.20;;;;;;;9.72;100.00;97966.25;4485581;31;20097;-64
2023/03/25 05:55:27;;;;;;;1.40;0.95;;;;;;;9.76;100.00;97971.97;4485361;31;20158;-64
2023/03/25 05:57:55;;;;;;;1.55;1.15;;;;;;;9.92;100.00;97969.50;4484138;32;20182;-64
2023/03/25 06:00:23;;;;;;;3.15;1.33;;;;;;;9.90;100.00;97981.06;4485362;32;20105;-64
2023/03/25 06:02:51;;;;;;;3.40;1.33;;;;;;;9.95;100.00;97986.69;4485638;31;20150;-64
2023/03/25 06:05:22;;;;;;;1.80;1.25;;;;;;;9.93;100.00;97979.00;4485243;31;20164;-64
2023/03/25 06:07:50;;;;;;;4.55;1.37;;;;;;;9.98;100.00;97981.16;4485552;31;20623;-65
2023/03/25 06:10:18;;;;;;;2.03;1.30;;;;;;;9.95;100.00;97990.13;4485323;31;20080;-64
2023/03/25 06:12:46;;;;;;;2.28;1.30;;;;;;;10.00;100.00;97989.66;4485345;31;20108;-65
2023/03/25 06:15:16;;;;;;;2.35;1.23;;;;;;;10.05;100.00;97990.03;4485257;31;20100;-65
2023/03/25 06:17:46;;;;;;;3.65;1.48;;;;;;;10.03;100.00;97984.13;4485367;31;20138;-65
2023/03/25 06:20:15;;;;;;;1.90;1.25;;;;;;;10.07;100.00;97993.31;4485176;31;20109;-65
2023/03/25 06:22:44;;;;;;;2.12;1.42;;;;;;;10.11;100.00;97986.81;4485326;32;20111;-65
2023/03/25 06:25:16;;;;;;;2.28;1.58;;;;;;;10.16;100.00;97988.97;4485288;31;20092;-65
2023/03/25 06:27:45;;;;;;;1.35;1.20;;;;;;;10.16;100.00;97982.88;4485310;32;20168;-65
2023/03/25 06:30:16;;;;;;;5.65;2.10;;;;;;;10.11;100.00;97989.41;4485222;31;20526;-65
2023/03/25 06:32:49;;;;;;;2.65;1.65;;;;;;;10.20;100.00;97994.69;4485668;31;20115;-65
2023/03/25 06:35:18;;;;;;;3.12;1.58;;;;;;;10.28;100.00;98000.00;4483996;32;20128;-65
2023/03/25 06:37:47;;;;;;;2.83;1.67;;;;;;;10.38;100.00;98005.16;4484299;32;20755;-64
2023/03/25 06:40:16;;;;;;;3.87;1.87;;;;;;;10.43;100.00;98003.72;4485463;31;20409;-64
2023/03/25 06:42:43;;;;;;;2.37;1.65;;;;;;;10.52;100.00;98012.41;4485540;31;20104;-64
2023/03/25 06:45:14;;;;;;;2.58;1.83;;;;;;;10.56;100.00;98002.47;4485611;31;20123;-64
2023/03/25 06:47:42;;;;;;;7.62;1.75;;;;;;;10.55;100.00;98012.13;4485315;31;20164;-64
2023/03/25 06:50:10;;;;;;;3.40;1.90;;;;;;;10.61;100.00;98000.19;4485036;32;20092;-64
2023/03/25 06:52:37;;;;;;;3.15;1.60;;;;;;;10.71;100.00;98006.16;4485181;32;20156;-64
2023/03/25 06:55:05;;;;;;;3.45;1.75;;;;;;;10.75;100.00;98002.25;4485081;31;20152;-64
2023/03/25 06:57:33;;;;;;;3.47;2.00;;;;;;;10.89;100.00;98015.72;4485045;31;20585;-64
2023/03/25 07:00:01;;;;;;;3.03;2.00;;;;;;;11.01;100.00;98017.88;4484874;31;20172;-64
2023/03/25 07:02:28;;;;;;;3.03;1.70;;;;;;;11.10;100.00;98015.31;4485357;31;20096;-64
2023/03/25 07:04:55;;;;;;;3.50;2.08;;;;;;;11.26;100.00;98022.38;4484988;31;20079;-64
2023/03/25 07:07:22;;;;;;;3.85;2.00;;;;;;;11.26;100.00;98030.25;4484238;31;20517;-65
2023/03/25 07:09:51;;;;;;;3.90;2.08;;;;;;;11.40;100.00;98024.41;4485053;31;20096;-65
2023/03/25 07:12:18;;;;;;;4.15;1.70;;;;;;;11.37;100.00;98029.97;4484999;31;20100;-64
2023/03/25 07:14:56;;;;;;;3.35;2.08;;;;;;;11.35;100.00;98037.16;4484805;31;20163;-65
2023/03/25 07:17:23;;;;;;;3.22;2.25;;;;;;;11.45;100.00;98029.97;4484711;31;20092;-65
2023/03/25 07:19:50;;;;;;;3.58;2.17;;;;;;;11.50;100.00;98032.94;4484759;32;20528;-65
2023/03/25 07:22:17;;;;;;;4.50;2.45;;;;;;;11.47;100.00;98040.31;4484988;31;20092;-65
2023/03/25 07:24:45;;;;;;;6.95;2.67;;;;;;;11.42;100.00;98032.13;4485224;31;20156;-65
2023/03/25 07:27:14;;;;;;;3.35;1.87;;;;;;;11.40;100.00;98039.31;4485046;31;20434;-65
2023/03/25 07:29:42;;;;;;;5.03;2.35;;;;;;;11.39;100.00;98048.97;4485125;31;20100;-65
2023/03/25 07:32:09;;;;;;;5.18;2.30;;;;;;;11.40;100.00;98042.75;4485173;31;20493;-65
2023/03/25 07:34:37;;;;;;;4.07;2.40;;;;;;;11.44;100.00;98046.69;4483659;32;20199;-65
2023/03/25 07:37:04;;;;;;;4.00;2.25;;;;;;;11.51;100.00;98042.44;4484572;31;20175;-65
2023/03/25 07:39:31;;;;;;;4.30;2.12;;;;;;;11.61;100.00;98037.06;4484895;31;20147;-65
2023/03/25 07:41:59;;;;;;;2.95;2.35;;;;;;;11.61;100.00;98036.22;4484643;32;20100;-65
2023/03/25 07:44:27;;;;;;;3.70;2.35;;;;;;;11.69;100.00;98039.69;4484926;31;20104;-65
2023/03/25 07:46:54;;;;;;;4.60;2.10;;;;;;;11.82;100.00;98039.19;4484563;31;20096;-65
2023/03/25 07:49:22;;;;;;;3.53;1.87;;;;;;;11.74;100.00;98031.34;4484697;32;20449;-65
2023/03/25 07:51:49;;;;;;;2.83;1.70;;;;;;;11.86;100.00;98034.47;4484847;31;20176;-65
2023/03/25 07:54:16;;;;;;;2.80;1.77;;;;;;;12.03;100.00;98024.81;4483360;32;20194;-65
2023/03/25 07:56:44;;;;;;;2.08;1.60;;;;;;;12.20;100.00;98026.44;4484352;31;20108;-65
2023/03/25 07:59:11;;;;;;;2.58;1.90;;;;;;;12.47;100.00;98032.31;4484508;31;20453;-65
2023/03/25 08:01:38;;;;;;;2.20;1.87;;;;;;;12.48;100.00;98033.16;4484333;31;20096;-64
2023/03/25 08:04:05;;;;;;;12.25;2.22;;;;;;;12.54;100.00;98025.41;4484592;31;20127;-65
2023/03/25 08:06:33;;;;;;;2.60;2.00;;;;;;;12.43;100.00;98028.38;4484297;31;20084;-65
2023/03/25 08:09:00;;;;;;;3.35;2.20;;;;;;;12.35;100.00;98041.53;4484362;31;20449;-65
2023/03/25 08:11:27;;;;;;;2.83;1.90;;;;;;;12.41;100.00;98040.84;4484437;31;20109;-65
2023/03/25 08:13:55;;;;;;;2.25;2.00;;;;;;;12.52;100.00;98042.31;4484602;31;20137;-65
2023/03/25 08:16:22;;;;;;;2.40;1.70;;;;;;;12.57;100.00;98032.13;4483992;31;20088;-65
2023/03/25 08:18:51;;;;;;;2.40;1.58;;;;;;;12.80;100.00;98034.84;4484993;31;20076;-65
2023/03/25 08:21:24;;;;;;;3.15;1.77;;;;;;;12.78;100.00;98044.72;4486049;31;20116;-65
2023/03/25 08:23:57;;;;;;;2.03;1.37;;;;;;;12.92;100.00;98030.84;4486447;31;20114;-65
2023/03/25 08:26:25;;;;;;;2.62;1.50;;;;;;;13.08;100.00;98029.97;4486081;31;20935;-65
2023/03/25 08:28:56;;;;;;;4.18;1.50;;;;;;;13.16;100.00;98029.13;4486330;31;20149;-65
2023/03/25 08:31:25;;;;;;;3.42;1.77;;;;;;;13.31;100.00;98024.75;4486221;31;20073;-64
2023/03/25 08:33:52;;;;;;;1.45;1.30;;;;;;;13.58;100.00;98024.47;4486164;31;20397;-65
2023/03/25 08:36:22;;;;;;;3.75;1.75;;;;;;;13.61;100.00;98017.06;4486073;31;20446;-65
2023/03/25 08:38:49;;;;;;;2.90;1.42;;;;;;;13.81;100.00;98017.41;4486090;32;20144;-65
2023/03/25 08:41:17;;;;;;;5.10;1.98;;;;;;;13.95;100.00;98013.16;4485864;31;20096;-64
2023/03/25 08:43:44;;;;;;;3.67;1.30;;;;;;;13.98;100.00;98014.63;4486176;31;20116;-64
2023/03/25 08:46:12;;;;;;;2.25;1.58;;;;;;;14.09;100.00;98037.91;4485904;31;20449;-65
2023/03/25 08:48:39;;;;;;;2.50;1.67;;;;;;;14.24;100.00;98018.69;4486307;31;20107;-64
2023/03/25 08:51:07;;;;;;;6.45;1.65;;;;;;;14.38;100.00;98020.53;4485746;31;20096;-64
2023/03/25 08:53:34;;;;;;;3.53;1.80;;;;;;;14.00;100.00;98029.28;4485911;31;20160;-64
2023/03/25 08:56:02;;;;;;;2.25;1.40;;;;;;;13.99;100.00;98021.56;4485812;32;20126;-64
2023/03/25 08:58:29;;;;;;;1.85;1.37;;;;;;;14.02;100.00;98014.09;4485817;31;20100;-64
2023/03/25 09:00:57;;;;;;;4.12;1.40;;;;;;;13.95;100.00;98013.16;4486093;31;20723;-64
2023/03/25 09:03:25;;;;;;;2.97;1.77;;;;;;;13.89;100.00;98011.25;4486073;32;20183;-64
2023/03/25 09:05:53;;;;;;;3.30;1.70;;;;;;;13.91;100.00;98008.44;4485781;31;20092;-65
2023/03/25 09:08:21;;;;;;;3.95;1.70;;;;;;;14.05;100.00;98020.84;4485804;31;20103;-65
2023/03/25 09:10:48;;;;;;;2.58;1.37;;;;;;;14.08;100.00;98020.50;4485768;31;20156;-64
2023/03/25 09:13:15;;;;;;;2.60;1.77;;;;;;;14.27;99.76;98024.41;4485858;31;20157;-64
2023/03/25 09:15:44;;;;;;;2.55;1.80;;;;;;;14.33;99.83;98021.06;4485575;31;20088;-65
2023/03/25 09:18:11;;;;;;;2.20;1.80;;;;;;;14.41;100.00;98035.97;4485654;31;20380;-65
2023/03/25 09:20:40;;;;;;;5.47;1.90;;;;;;;14.64;99.07;98024.56;4485550;31;20089;-64
2023/03/25 09:23:08;;;;;;;2.53;1.77;;;;;;;14.73;97.50;98013.75;4485950;32;20922;-64
2023/03/25 09:25:36;;;;;;;7.22;1.98;;;;;;;14.98;96.89;98020.56;4485752;32;20191;-64
2023/03/25 09:28:04;;;;;;;3.45;2.00;;;;;;;15.02;94.60;98022.66;4485843;32;20167;-65
2023/03/25 09:30:31;;;;;;;3.58;1.60;;;;;;;14.87;98.31;98022.66;4485125;31;20152;-64
2023/03/25 09:32:59;;;;;;;3.70;1.83;;;;;;;14.99;92.21;98033.56;4485717;31;20103;-64
2023/03/25 09:35:27;;;;;;;3.40;1.83;;;;;;;14.95;91.50;98018.31;4485743;31;20155;-65
2023/03/25 09:37:54;;;;;;;2.67;1.35;;;;;;;15.00;90.59;98019.37;4485784;31;20172;-64
2023/03/25 09:40:24;;;;;;;2.60;1.60;;;;;;;15.17;91.07;98025.28;4485500;31;20203;-65
2023/03/25 09:43:10;;;;;;;2.40;1.60;;;;;;;15.23;87.80;98023.69;4485598;31;20092;-64
2023/03/25 09:45:47;;;;;;;2.00;1.17;;;;;;;15.25;89.91;98019.06;4485574;31;20466;-65
2023/03/25 09:48:43;;;;;;;2.53;1.33;;;;;;;15.53;85.51;98029.72;4484381;32;20197;-64
2023/03/25 09:51:28;;;;;;;1.85;1.37;;;;;;;15.58;83.27;98022.06;4484255;32;20219;-64
2023/03/25 09:54:16;;;;;;;2.42;1.27;;;;;;;15.61;85.46;98028.81;4471297;32;20119;-64
2023/03/25 09:56:43;;;;;;;3.05;1.70;;;;;;;15.35;86.64;98034.59;4485337;31;20179;-65
2023/03/25 09:59:15;;;;;;;4.85;1.62;;;;;;;15.47;87.97;98030.47;4485433;31;20458;-64
2023/03/25 10:02:08;;;;;;;2.80;2.05;;;;;;;15.35;85.78;98043.34;4484203;32;20152;-65
2023/03/25 10:05:03;;;;;;;3.80;2.05;;;;;;;15.20;87.59;98032.81;4485538;31;20079;-64
2023/03/25 10:07:52;;;;;;;5.00;2.20;;;;;;;15.06;89.63;98033.66;4485284;31;20095;-64
2023/03/25 10:10:44;;;;;;;2.87;1.90;;;;;;;15.52;85.96;98036.00;4485683;31;20099;-65
2023/03/25 10:13:19;;;;;;;5.22;2.03;;;;;;;15.87;84.97;98049.41;4468383;32;20104;-65
2023/03/25 10:16:18;;;;;;;3.35;2.10;;;;;;;15.58;85.83;98043.19;4484145;32;20131;-64
2023/03/25 10:19:21;;;;;;;3.55;1.67;;;;;;;15.14;85.62;98040.63;4436255;32;20144;-65
2023/03/25 10:22:04;;;;;;;7.68;2.12;;;;;;;15.04;87.82;98035.66;4435927;32;20098;-64
2023/03/25 10:24:39;;;;;;;3.12;1.85;;;;;;;15.22;85.82;98028.16;4436074;32;20102;-64
2023/03/25 10:27:19;;;;;;;3.12;1.98;;;;;;;15.52;80.55;98037.81;4423137;32;20120;-65
2023/03/25 10:29:53;;;;;;;3.95;1.62;;;;;;;15.49;81.95;98031.09;4436155;32;20657;-65
2023/03/25 10:32:31;;;;;;;3.30;1.40;;;;;;;15.91;78.13;98031.34;4423435;32;20105;-65
2023/03/25 10:35:02;;;;;;;4.32;1.50;;;;;;;16.09;74.91;98044.09;4423650;32;20620;-65
2023/03/25 10:37:32;;;;;;;6.70;1.50;;;;;;;15.81;71.68;98041.41;4423490;32;20737;-65
2023/03/25 10:40:11;;;;;;;2.45;1.12;;;;;;;15.98;72.93;98023.47;4423697;32;20098;-64
2023/03/25 10:42:45;;;;;;;2.92;1.10;;;;;;;16.05;69.92;98033.09;4434916;32;20153;-64
2023/03/25 10:45:15;;;;;;;2.85;1.70;;;;;;;15.93;69.66;98031.97;4436284;32;20124;-65
2023/03/25 10:47:43;;;;;;;2.10;1.42;;;;;;;16.14;68.26;98044.34;4423597;32;20610;-64
2023/03/25 10:50:18;;;;;;;2.90;1.00;;;;;;;16.37;67.49;98027.44;4410657;32;20523;-65
2023/03/25 10:52:47;;;;;;;3.15;1.50;;;;;;;16.29;68.76;98047.72;4436150;32;20128;-65
2023/03/25 10:55:34;;;;;;;3.05;1.50;;;;;;;16.46;67.90;98042.16;4438184;32;20100;-65
2023/03/25 10:58:03;;;;;;;2.85;1.33;;;;;;;16.67;69.60;98044.72;4478787;32;20122;-65
2023/03/25 11:00:30;;;;;;;2.78;1.30;;;;;;;16.48;68.40;98038.28;4485075;31;20149;-65
2023/03/25 11:02:57;;;;;;;3.08;1.33;;;;;;;15.95;68.72;98048.44;4485253;32;20122;-65
2023/03/25 11:05:27;;;;;;;2.42;1.30;;;;;;;15.79;70.34;98042.41;4485420;31;20120;-65
2023/03/25 11:08:00;;;;;;;2.70;1.20;;;;;;;15.98;69.09;98040.13;4485210;31;20125;-65
2023/03/25 11:10:38;;;;;;;2.87;1.00;;;;;;;16.15;66.69;98040.69;4485068;31;20111;-65
2023/03/25 11:13:12;;;;;;;1.52;0.90;;;;;;;16.07;63.06;98040.84;4484948;31;20458;-65
2023/03/25 11:15:40;;;;;;;1.92;1.10;;;;;;;15.84;62.96;98041.03;4469331;32;20477;-65
2023/03/25 11:18:26;;;;;;;5.25;0.90;;;;;;;15.92;64.44;98043.53;4467942;32;20449;-65
2023/03/25 11:20:56;;;;;;;5.22;0.90;;;;;;;15.88;64.80;98061.59;4467930;32;20171;-65
2023/03/25 11:23:27;;;;;;;1.67;0.50;;;;;;;15.36;65.01;98049.44;4468060;32;20076;-65
2023/03/25 11:25:55;;;;;;;1.52;0.55;;;;;;;15.72;66.40;98061.81;4467922;32;20116;-65
2023/03/25 11:28:30;;;;;;;1.73;0.65;;;;;;;15.86;64.95;98060.16;4467613;32;20123;-65
2023/03/25 11:31:08;;;;;;;2.50;0.95;;;;;;;15.84;65.08;98080.66;4469211;32;20111;-65
2023/03/25 11:33:36;;;;;;;1.40;0.80;;;;;;;15.53;63.92;98047.38;4469207;32;20136;-65
2023/03/25 11:36:16;;;;;;;3.20;1.00;;;;;;;15.33;63.39;98063.81;4467942;32;20105;-64
2023/03/25 11:38:46;;;;;;;4.55;1.17;;;;;;;15.23;63.78;98060.62;4469158;32;20089;-64
2023/03/25 11:41:13;;;;;;;2.35;0.90;;;;;;;15.18;63.55;98057.75;4469040;32;20097;-64
2023/03/25 11:43:41;;;;;;;3.20;0.90;;;;;;;15.07;63.68;98051.94;4468787;32;20089;-65
2023/03/25 11:46:12;;;;;;;1.92;0.68;;;;;;;15.18;64.85;98049.81;4469130;32;20104;-65
2023/03/25 11:48:41;;;;;;;7.15;1.08;;;;;;;15.24;64.68;98051.72;4467737;32;20097;-64
2023/03/25 11:51:27;;;;;;;1.65;0.57;;;;;;;15.26;65.56;98049.72;4467671;32;20115;-64